Palatine Bridge, New York
Current Conditions -  °F | °C
As of 6:35 AM on Tuesday 21 Oct 2014 (Local Time) from KNY0 Reporting Station
Overcast Overcast  
Wind Chill:   Ceiling: 5500
Heat Index:   Visibility: 10mi
Dew Point:   Wind: 3mph
Humidity: 89%   Direction: 60°ENE
Pressure: 29.89"   Gusts: NA
Location:  42.91°N, 74.57°W
Report Text: KNY0 211035Z AUTO 06003KT 10SM OVC055 06/05 A2989 RMK AO2 T00620045
Loading
Personal Weather Stations






























Interactive Weather Map
Tropical Storm Tracking
New forecast layout! Learn more

10-Day Weather Forecast

Advertisements
Track Severe Weather on mobile